sensor_id;sensor_type;location;lat;lon;timestamp;P1;durP1;ratioP1;P2;durP2;ratioP2
37877;SDS011;23715;53.652;8.516;2023-07-20T00:01:10;42.93;;;40.57;;
37877;SDS011;23715;53.652;8.516;2023-07-20T00:06:11;41.40;;;39.08;;
37877;SDS011;23715;53.652;8.516;2023-07-20T00:11:11;35.63;;;33.92;;
37877;SDS011;23715;53.652;8.516;2023-07-20T00:16:12;35.73;;;34.00;;
37877;SDS011;23715;53.652;8.516;2023-07-20T00:21:12;35.28;;;33.58;;
37877;SDS011;23715;53.652;8.516;2023-07-20T00:31:12;30.45;;;29.05;;
37877;SDS011;23715;53.652;8.516;2023-07-20T00:36:14;30.92;;;29.42;;
37877;SDS011;23715;53.652;8.516;2023-07-20T00:41:14;32.20;;;30.60;;
37877;SDS011;23715;53.652;8.516;2023-07-20T00:46:16;30.37;;;28.87;;
37877;SDS011;23715;53.652;8.516;2023-07-20T00:51:16;34.27;;;32.38;;
37877;SDS011;23715;53.652;8.516;2023-07-20T00:56:17;33.05;;;31.35;;
37877;SDS011;23715;53.652;8.516;2023-07-20T01:01:17;33.00;;;31.40;;
37877;SDS011;23715;53.652;8.516;2023-07-20T01:06:24;33.80;;;32.13;;
37877;SDS011;23715;53.652;8.516;2023-07-20T01:12:12;33.88;;;32.08;;
37877;SDS011;23715;53.652;8.516;2023-07-20T01:16:32;33.15;;;31.55;;
37877;SDS011;23715;53.652;8.516;2023-07-20T01:21:37;32.40;;;30.70;;
37877;SDS011;23715;53.652;8.516;2023-07-20T01:32:00;27.30;;;25.95;;
37877;SDS011;23715;53.652;8.516;2023-07-20T01:37:05;27.98;;;26.55;;
37877;SDS011;23715;53.652;8.516;2023-07-20T01:42:06;28.75;;;27.10;;
37877;SDS011;23715;53.652;8.516;2023-07-20T01:52:07;28.33;;;26.83;;
37877;SDS011;23715;53.652;8.516;2023-07-20T01:57:07;27.37;;;25.75;;
37877;SDS011;23715;53.652;8.516;2023-07-20T02:02:08;28.87;;;27.27;;
37877;SDS011;23715;53.652;8.516;2023-07-20T02:07:08;27.82;;;26.12;;
37877;SDS011;23715;53.652;8.516;2023-07-20T02:12:08;28.10;;;26.65;;
37877;SDS011;23715;53.652;8.516;2023-07-20T02:17:09;30.35;;;28.65;;
37877;SDS011;23715;53.652;8.516;2023-07-20T02:22:09;30.37;;;28.67;;
37877;SDS011;23715;53.652;8.516;2023-07-20T02:32:09;24.07;;;22.65;;
37877;SDS011;23715;53.652;8.516;2023-07-20T02:37:09;22.90;;;21.33;;
37877;SDS011;23715;53.652;8.516;2023-07-20T02:42:11;26.15;;;24.75;;
37877;SDS011;23715;53.652;8.516;2023-07-20T02:47:13;28.47;;;26.60;;
37877;SDS011;23715;53.652;8.516;2023-07-20T02:52:13;28.57;;;27.02;;
37877;SDS011;23715;53.652;8.516;2023-07-20T02:57:17;26.73;;;25.32;;
37877;SDS011;23715;53.652;8.516;2023-07-20T03:02:17;25.57;;;24.18;;
37877;SDS011;23715;53.652;8.516;2023-07-20T03:07:17;27.13;;;25.62;;
37877;SDS011;23715;53.652;8.516;2023-07-20T03:12:18;27.60;;;25.80;;
37877;SDS011;23715;53.652;8.516;2023-07-20T03:17:18;30.72;;;28.70;;
37877;SDS011;23715;53.652;8.516;2023-07-20T03:22:19;32.23;;;30.32;;
37877;SDS011;23715;53.652;8.516;2023-07-20T03:27:20;30.90;;;29.20;;
37877;SDS011;23715;53.652;8.516;2023-07-20T03:32:21;28.73;;;27.27;;
37877;SDS011;23715;53.652;8.516;2023-07-20T03:37:22;27.73;;;26.02;;
37877;SDS011;23715;53.652;8.516;2023-07-20T03:42:22;26.27;;;24.77;;
37877;SDS011;23715;53.652;8.516;2023-07-20T03:47:24;26.87;;;25.27;;
37877;SDS011;23715;53.652;8.516;2023-07-20T03:52:24;27.00;;;25.30;;
37877;SDS011;23715;53.652;8.516;2023-07-20T03:57:24;27.67;;;25.85;;
37877;SDS011;23715;53.652;8.516;2023-07-20T04:02:25;27.65;;;25.95;;
37877;SDS011;23715;53.652;8.516;2023-07-20T04:07:25;28.80;;;26.95;;
37877;SDS011;23715;53.652;8.516;2023-07-20T04:17:25;29.07;;;27.32;;
37877;SDS011;23715;53.652;8.516;2023-07-20T04:22:25;24.87;;;23.30;;
37877;SDS011;23715;53.652;8.516;2023-07-20T04:27:25;25.05;;;23.45;;
37877;SDS011;23715;53.652;8.516;2023-07-20T04:32:33;25.35;;;23.95;;
37877;SDS011;23715;53.652;8.516;2023-07-20T04:37:34;26.42;;;25.05;;
37877;SDS011;23715;53.652;8.516;2023-07-20T04:42:35;26.87;;;25.10;;
37877;SDS011;23715;53.652;8.516;2023-07-20T04:47:35;29.82;;;28.10;;
37877;SDS011;23715;53.652;8.516;2023-07-20T04:52:35;26.75;;;24.92;;
37877;SDS011;23715;53.652;8.516;2023-07-20T04:57:35;22.42;;;21.12;;
37877;SDS011;23715;53.652;8.516;2023-07-20T05:02:36;23.10;;;21.50;;
37877;SDS011;23715;53.652;8.516;2023-07-20T05:07:37;25.53;;;23.80;;
37877;SDS011;23715;53.652;8.516;2023-07-20T05:12:39;23.92;;;22.30;;
37877;SDS011;23715;53.652;8.516;2023-07-20T05:17:39;23.52;;;22.17;;
37877;SDS011;23715;53.652;8.516;2023-07-20T05:22:40;23.57;;;22.00;;
37877;SDS011;23715;53.652;8.516;2023-07-20T05:27:40;25.35;;;23.95;;
37877;SDS011;23715;53.652;8.516;2023-07-20T05:32:40;23.75;;;22.25;;
37877;SDS011;23715;53.652;8.516;2023-07-20T05:37:41;23.40;;;21.87;;
37877;SDS011;23715;53.652;8.516;2023-07-20T05:42:41;25.45;;;23.95;;
37877;SDS011;23715;53.652;8.516;2023-07-20T05:47:43;26.93;;;25.23;;
37877;SDS011;23715;53.652;8.516;2023-07-20T05:52:43;24.65;;;23.18;;
37877;SDS011;23715;53.652;8.516;2023-07-20T05:57:43;25.05;;;23.35;;
37877;SDS011;23715;53.652;8.516;2023-07-20T06:02:44;26.33;;;24.47;;
37877;SDS011;23715;53.652;8.516;2023-07-20T06:07:46;28.10;;;26.47;;
37877;SDS011;23715;53.652;8.516;2023-07-20T06:12:46;28.70;;;26.50;;
37877;SDS011;23715;53.652;8.516;2023-07-20T06:17:46;28.95;;;26.52;;
37877;SDS011;23715;53.652;8.516;2023-07-20T06:22:48;26.62;;;24.47;;
37877;SDS011;23715;53.652;8.516;2023-07-20T06:27:49;25.43;;;23.90;;
37877;SDS011;23715;53.652;8.516;2023-07-20T06:32:52;24.75;;;23.05;;
37877;SDS011;23715;53.652;8.516;2023-07-20T06:37:53;27.33;;;25.47;;
37877;SDS011;23715;53.652;8.516;2023-07-20T06:42:53;27.52;;;25.32;;
37877;SDS011;23715;53.652;8.516;2023-07-20T06:47:54;27.37;;;25.17;;
37877;SDS011;23715;53.652;8.516;2023-07-20T06:52:55;26.55;;;24.60;;
37877;SDS011;23715;53.652;8.516;2023-07-20T06:57:57;24.10;;;21.97;;
37877;SDS011;23715;53.652;8.516;2023-07-20T07:02:57;22.33;;;20.30;;
37877;SDS011;23715;53.652;8.516;2023-07-20T07:12:57;22.22;;;20.62;;
37877;SDS011;23715;53.652;8.516;2023-07-20T07:17:57;21.77;;;20.08;;
37877;SDS011;23715;53.652;8.516;2023-07-20T07:22:57;21.15;;;19.65;;
37877;SDS011;23715;53.652;8.516;2023-07-20T07:27:58;19.77;;;18.32;;
37877;SDS011;23715;53.652;8.516;2023-07-20T07:32:59;20.48;;;18.87;;
37877;SDS011;23715;53.652;8.516;2023-07-20T07:37:59;19.35;;;17.30;;
37877;SDS011;23715;53.652;8.516;2023-07-20T07:43:00;21.27;;;19.20;;
37877;SDS011;23715;53.652;8.516;2023-07-20T07:48:00;24.50;;;22.13;;
37877;SDS011;23715;53.652;8.516;2023-07-20T07:53:02;20.90;;;18.98;;
37877;SDS011;23715;53.652;8.516;2023-07-20T08:03:02;18.95;;;17.60;;
37877;SDS011;23715;53.652;8.516;2023-07-20T08:08:03;20.40;;;18.75;;
37877;SDS011;23715;53.652;8.516;2023-07-20T08:13:03;17.87;;;16.77;;
37877;SDS011;23715;53.652;8.516;2023-07-20T08:23:03;19.45;;;17.87;;
37877;SDS011;23715;53.652;8.516;2023-07-20T08:33:04;20.10;;;18.47;;
37877;SDS011;23715;53.652;8.516;2023-07-20T08:43:05;19.00;;;17.77;;
37877;SDS011;23715;53.652;8.516;2023-07-20T08:48:08;19.67;;;18.13;;
37877;SDS011;23715;53.652;8.516;2023-07-20T08:53:09;27.10;;;25.12;;
37877;SDS011;23715;53.652;8.516;2023-07-20T08:58:12;24.57;;;22.87;;
37877;SDS011;23715;53.652;8.516;2023-07-20T09:03:14;19.15;;;17.52;;
37877;SDS011;23715;53.652;8.516;2023-07-20T09:08:15;18.90;;;17.32;;
37877;SDS011;23715;53.652;8.516;2023-07-20T09:13:19;20.52;;;18.45;;
37877;SDS011;23715;53.652;8.516;2023-07-20T09:23:29;21.33;;;20.02;;
37877;SDS011;23715;53.652;8.516;2023-07-20T09:28:47;19.90;;;18.30;;
37877;SDS011;23715;53.652;8.516;2023-07-20T09:33:52;17.48;;;16.15;;
37877;SDS011;23715;53.652;8.516;2023-07-20T09:38:54;22.48;;;20.80;;
37877;SDS011;23715;53.652;8.516;2023-07-20T09:43:54;23.50;;;21.77;;
37877;SDS011;23715;53.652;8.516;2023-07-20T09:48:55;21.07;;;19.67;;
37877;SDS011;23715;53.652;8.516;2023-07-20T09:53:55;25.52;;;19.42;;
37877;SDS011;23715;53.652;8.516;2023-07-20T09:58:57;18.92;;;17.25;;
37877;SDS011;23715;53.652;8.516;2023-07-20T10:03:59;20.40;;;18.90;;
37877;SDS011;23715;53.652;8.516;2023-07-20T10:09:03;20.77;;;19.48;;
37877;SDS011;23715;53.652;8.516;2023-07-20T10:14:05;16.40;;;15.18;;
37877;SDS011;23715;53.652;8.516;2023-07-20T10:19:11;24.12;;;16.12;;
37877;SDS011;23715;53.652;8.516;2023-07-20T10:24:17;17.42;;;16.32;;
37877;SDS011;23715;53.652;8.516;2023-07-20T10:29:18;15.70;;;14.55;;
37877;SDS011;23715;53.652;8.516;2023-07-20T10:34:19;21.23;;;19.42;;
37877;SDS011;23715;53.652;8.516;2023-07-20T10:39:30;20.08;;;18.15;;
37877;SDS011;23715;53.652;8.516;2023-07-20T10:44:26;22.13;;;20.35;;
37877;SDS011;23715;53.652;8.516;2023-07-20T10:49:26;20.90;;;19.20;;
37877;SDS011;23715;53.652;8.516;2023-07-20T11:04:39;19.80;;;18.00;;
37877;SDS011;23715;53.652;8.516;2023-07-20T11:09:41;17.55;;;16.07;;
37877;SDS011;23715;53.652;8.516;2023-07-20T11:14:42;17.98;;;16.42;;
37877;SDS011;23715;53.652;8.516;2023-07-20T11:19:44;21.17;;;19.37;;
37877;SDS011;23715;53.652;8.516;2023-07-20T11:24:47;19.07;;;17.43;;
37877;SDS011;23715;53.652;8.516;2023-07-20T11:29:50;16.17;;;15.00;;
37877;SDS011;23715;53.652;8.516;2023-07-20T11:34:51;15.95;;;14.75;;
37877;SDS011;23715;53.652;8.516;2023-07-20T11:44:55;18.07;;;16.65;;
37877;SDS011;23715;53.652;8.516;2023-07-20T11:49:57;19.73;;;18.35;;
37877;SDS011;23715;53.652;8.516;2023-07-20T11:55:00;16.57;;;15.40;;
37877;SDS011;23715;53.652;8.516;2023-07-20T12:00:03;16.87;;;15.32;;
37877;SDS011;23715;53.652;8.516;2023-07-20T12:05:05;14.40;;;13.20;;
37877;SDS011;23715;53.652;8.516;2023-07-20T12:10:09;18.20;;;16.75;;
37877;SDS011;23715;53.652;8.516;2023-07-20T12:15:17;13.23;;;12.23;;
37877;SDS011;23715;53.652;8.516;2023-07-20T12:20:29;10.72;;;10.00;;
37877;SDS011;23715;53.652;8.516;2023-07-20T12:25:38;11.20;;;10.50;;
37877;SDS011;23715;53.652;8.516;2023-07-20T12:30:44;10.63;;;10.00;;
37877;SDS011;23715;53.652;8.516;2023-07-20T12:35:47;12.70;;;10.63;;
37877;SDS011;23715;53.652;8.516;2023-07-20T12:40:48;12.45;;;10.50;;
37877;SDS011;23715;53.652;8.516;2023-07-20T12:45:50;10.82;;;9.93;;
37877;SDS011;23715;53.652;8.516;2023-07-20T12:50:50;11.30;;;9.95;;
37877;SDS011;23715;53.652;8.516;2023-07-20T13:00:50;11.70;;;10.58;;
37877;SDS011;23715;53.652;8.516;2023-07-20T13:10:50;10.65;;;9.60;;
37877;SDS011;23715;53.652;8.516;2023-07-20T13:15:52;11.45;;;10.40;;
37877;SDS011;23715;53.652;8.516;2023-07-20T13:20:52;9.93;;;8.90;;
37877;SDS011;23715;53.652;8.516;2023-07-20T13:25:52;8.80;;;8.05;;
37877;SDS011;23715;53.652;8.516;2023-07-20T13:30:52;10.72;;;9.85;;
37877;SDS011;23715;53.652;8.516;2023-07-20T13:35:59;10.28;;;9.48;;
37877;SDS011;23715;53.652;8.516;2023-07-20T13:40:55;10.13;;;9.30;;
37877;SDS011;23715;53.652;8.516;2023-07-20T13:50:54;10.13;;;9.30;;
37877;SDS011;23715;53.652;8.516;2023-07-20T13:55:55;10.63;;;9.88;;
37877;SDS011;23715;53.652;8.516;2023-07-20T14:00:55;10.60;;;9.67;;
37877;SDS011;23715;53.652;8.516;2023-07-20T14:05:55;10.18;;;9.18;;
37877;SDS011;23715;53.652;8.516;2023-07-20T14:10:55;12.47;;;11.12;;
37877;SDS011;23715;53.652;8.516;2023-07-20T14:15:56;10.50;;;9.70;;
37877;SDS011;23715;53.652;8.516;2023-07-20T14:21:01;11.10;;;10.05;;
37877;SDS011;23715;53.652;8.516;2023-07-20T14:26:03;10.93;;;10.03;;
37877;SDS011;23715;53.652;8.516;2023-07-20T14:31:03;10.75;;;9.70;;
37877;SDS011;23715;53.652;8.516;2023-07-20T14:36:04;10.32;;;9.63;;
37877;SDS011;23715;53.652;8.516;2023-07-20T14:41:05;11.10;;;9.95;;
37877;SDS011;23715;53.652;8.516;2023-07-20T14:46:06;10.58;;;9.63;;
37877;SDS011;23715;53.652;8.516;2023-07-20T14:51:06;12.37;;;10.15;;
37877;SDS011;23715;53.652;8.516;2023-07-20T14:56:08;12.18;;;10.20;;
37877;SDS011;23715;53.652;8.516;2023-07-20T15:01:11;11.30;;;10.30;;
37877;SDS011;23715;53.652;8.516;2023-07-20T15:06:11;11.85;;;10.98;;
37877;SDS011;23715;53.652;8.516;2023-07-20T15:11:15;12.07;;;11.12;;
37877;SDS011;23715;53.652;8.516;2023-07-20T15:16:16;12.25;;;11.50;;
37877;SDS011;23715;53.652;8.516;2023-07-20T15:26:16;12.78;;;10.13;;
37877;SDS011;23715;53.652;8.516;2023-07-20T15:31:18;12.45;;;10.30;;
37877;SDS011;23715;53.652;8.516;2023-07-20T15:36:20;16.17;;;10.70;;
37877;SDS011;23715;53.652;8.516;2023-07-20T15:51:28;13.50;;;10.72;;
37877;SDS011;23715;53.652;8.516;2023-07-20T15:56:30;10.85;;;10.05;;
37877;SDS011;23715;53.652;8.516;2023-07-20T16:01:30;10.97;;;9.83;;
37877;SDS011;23715;53.652;8.516;2023-07-20T16:06:31;11.50;;;10.30;;
37877;SDS011;23715;53.652;8.516;2023-07-20T16:11:34;11.85;;;10.95;;
37877;SDS011;23715;53.652;8.516;2023-07-20T16:16:40;10.90;;;10.05;;
37877;SDS011;23715;53.652;8.516;2023-07-20T16:21:36;12.93;;;11.78;;
37877;SDS011;23715;53.652;8.516;2023-07-20T16:26:37;11.80;;;11.03;;
37877;SDS011;23715;53.652;8.516;2023-07-20T16:31:39;10.98;;;10.18;;
37877;SDS011;23715;53.652;8.516;2023-07-20T16:41:40;12.03;;;9.75;;
37877;SDS011;23715;53.652;8.516;2023-07-20T16:46:42;11.30;;;10.23;;
37877;SDS011;23715;53.652;8.516;2023-07-20T16:51:43;10.98;;;10.18;;
37877;SDS011;23715;53.652;8.516;2023-07-20T16:56:44;10.98;;;10.30;;
37877;SDS011;23715;53.652;8.516;2023-07-20T17:01:44;11.55;;;10.75;;
37877;SDS011;23715;53.652;8.516;2023-07-20T17:06:46;11.33;;;10.43;;
37877;SDS011;23715;53.652;8.516;2023-07-20T17:11:47;10.80;;;10.10;;
37877;SDS011;23715;53.652;8.516;2023-07-20T17:16:47;11.38;;;10.53;;
37877;SDS011;23715;53.652;8.516;2023-07-20T17:21:49;10.38;;;9.68;;
37877;SDS011;23715;53.652;8.516;2023-07-20T17:26:50;10.35;;;9.55;;
37877;SDS011;23715;53.652;8.516;2023-07-20T17:31:50;10.68;;;10.08;;
37877;SDS011;23715;53.652;8.516;2023-07-20T17:36:50;10.77;;;9.90;;
37877;SDS011;23715;53.652;8.516;2023-07-20T17:41:50;11.03;;;10.17;;
37877;SDS011;23715;53.652;8.516;2023-07-20T17:51:50;9.50;;;8.77;;
37877;SDS011;23715;53.652;8.516;2023-07-20T17:56:51;10.45;;;8.90;;
37877;SDS011;23715;53.652;8.516;2023-07-20T18:06:50;10.90;;;10.30;;
37877;SDS011;23715;53.652;8.516;2023-07-20T18:16:50;11.50;;;10.65;;
37877;SDS011;23715;53.652;8.516;2023-07-20T18:21:50;11.22;;;10.28;;
37877;SDS011;23715;53.652;8.516;2023-07-20T18:26:51;11.30;;;10.28;;
37877;SDS011;23715;53.652;8.516;2023-07-20T18:31:51;11.20;;;10.20;;
37877;SDS011;23715;53.652;8.516;2023-07-20T18:36:53;10.70;;;9.70;;
37877;SDS011;23715;53.652;8.516;2023-07-20T18:41:53;11.78;;;10.78;;
37877;SDS011;23715;53.652;8.516;2023-07-20T18:46:56;10.40;;;9.70;;
37877;SDS011;23715;53.652;8.516;2023-07-20T18:51:56;10.35;;;9.55;;
37877;SDS011;23715;53.652;8.516;2023-07-20T18:56:57;9.75;;;9.05;;
37877;SDS011;23715;53.652;8.516;2023-07-20T19:01:57;11.05;;;10.23;;
37877;SDS011;23715;53.652;8.516;2023-07-20T19:06:57;10.33;;;9.43;;
37877;SDS011;23715;53.652;8.516;2023-07-20T19:16:57;8.70;;;7.95;;
37877;SDS011;23715;53.652;8.516;2023-07-20T19:21:58;7.53;;;6.97;;
37877;SDS011;23715;53.652;8.516;2023-07-20T19:26:58;8.75;;;8.05;;
37877;SDS011;23715;53.652;8.516;2023-07-20T19:32:00;8.53;;;7.55;;
37877;SDS011;23715;53.652;8.516;2023-07-20T19:37:00;6.30;;;5.78;;
37877;SDS011;23715;53.652;8.516;2023-07-20T19:42:01;8.85;;;5.75;;
37877;SDS011;23715;53.652;8.516;2023-07-20T19:52:02;4.45;;;4.05;;
37877;SDS011;23715;53.652;8.516;2023-07-20T19:57:02;4.92;;;4.53;;
37877;SDS011;23715;53.652;8.516;2023-07-20T20:02:03;7.17;;;4.85;;
37877;SDS011;23715;53.652;8.516;2023-07-20T20:12:04;7.58;;;4.30;;
37877;SDS011;23715;53.652;8.516;2023-07-20T20:17:05;5.45;;;5.05;;
37877;SDS011;23715;53.652;8.516;2023-07-20T20:22:06;5.50;;;5.00;;
37877;SDS011;23715;53.652;8.516;2023-07-20T20:27:07;5.83;;;4.87;;
37877;SDS011;23715;53.652;8.516;2023-07-20T20:32:08;7.08;;;4.87;;
37877;SDS011;23715;53.652;8.516;2023-07-20T20:37:11;10.30;;;5.75;;
37877;SDS011;23715;53.652;8.516;2023-07-20T20:42:12;6.85;;;6.20;;
37877;SDS011;23715;53.652;8.516;2023-07-20T20:47:12;6.53;;;5.58;;
37877;SDS011;23715;53.652;8.516;2023-07-20T20:52:13;11.87;;;5.63;;
37877;SDS011;23715;53.652;8.516;2023-07-20T20:57:16;6.03;;;5.53;;
37877;SDS011;23715;53.652;8.516;2023-07-20T21:02:16;7.28;;;5.87;;
37877;SDS011;23715;53.652;8.516;2023-07-20T21:07:16;8.35;;;6.47;;
37877;SDS011;23715;53.652;8.516;2023-07-20T21:12:17;6.10;;;5.60;;
37877;SDS011;23715;53.652;8.516;2023-07-20T21:22:17;7.15;;;6.03;;
37877;SDS011;23715;53.652;8.516;2023-07-20T21:27:20;6.85;;;6.28;;
37877;SDS011;23715;53.652;8.516;2023-07-20T21:32:25;7.83;;;6.00;;
37877;SDS011;23715;53.652;8.516;2023-07-20T21:37:27;7.42;;;6.83;;
37877;SDS011;23715;53.652;8.516;2023-07-20T21:42:27;10.98;;;8.13;;
37877;SDS011;23715;53.652;8.516;2023-07-20T21:47:32;7.78;;;7.08;;
37877;SDS011;23715;53.652;8.516;2023-07-20T21:52:32;8.68;;;7.33;;
37877;SDS011;23715;53.652;8.516;2023-07-20T21:57:33;6.83;;;6.17;;
37877;SDS011;23715;53.652;8.516;2023-07-20T22:07:33;9.10;;;6.97;;
37877;SDS011;23715;53.652;8.516;2023-07-20T22:12:33;8.68;;;7.67;;
37877;SDS011;23715;53.652;8.516;2023-07-20T22:17:34;7.20;;;6.72;;
37877;SDS011;23715;53.652;8.516;2023-07-20T22:22:35;8.08;;;7.37;;
37877;SDS011;23715;53.652;8.516;2023-07-20T22:27:36;8.70;;;6.90;;
37877;SDS011;23715;53.652;8.516;2023-07-20T22:32:36;9.68;;;7.12;;
37877;SDS011;23715;53.652;8.516;2023-07-20T22:37:37;7.22;;;6.60;;
37877;SDS011;23715;53.652;8.516;2023-07-20T22:42:38;10.35;;;6.95;;
37877;SDS011;23715;53.652;8.516;2023-07-20T22:47:39;8.90;;;7.97;;
37877;SDS011;23715;53.652;8.516;2023-07-20T22:57:40;11.70;;;10.90;;
37877;SDS011;23715;53.652;8.516;2023-07-20T23:02:41;14.25;;;12.85;;
37877;SDS011;23715;53.652;8.516;2023-07-20T23:07:42;13.78;;;12.78;;
37877;SDS011;23715;53.652;8.516;2023-07-20T23:12:42;15.03;;;14.00;;
37877;SDS011;23715;53.652;8.516;2023-07-20T23:17:43;16.03;;;14.83;;
37877;SDS011;23715;53.652;8.516;2023-07-20T23:22:49;16.12;;;14.70;;
37877;SDS011;23715;53.652;8.516;2023-07-20T23:27:50;16.90;;;15.80;;
37877;SDS011;23715;53.652;8.516;2023-07-20T23:32:50;17.12;;;15.93;;
37877;SDS011;23715;53.652;8.516;2023-07-20T23:37:50;18.70;;;17.27;;
37877;SDS011;23715;53.652;8.516;2023-07-20T23:42:51;19.77;;;18.55;;
37877;SDS011;23715;53.652;8.516;2023-07-20T23:47:51;21.03;;;19.67;;
37877;SDS011;23715;53.652;8.516;2023-07-20T23:52:52;24.10;;;22.70;;
37877;SDS011;23715;53.652;8.516;2023-07-20T23:57:52;26.42;;;24.65;;
